Time;durP1;ratioP1;P1;durP2;ratioP2;P2;SDS_P1;SDS_P2;PMS_P1;PMS_P2;Temp;Humidity;BMP_temperature;BMP_pressure;BME280_temperature;BME280_humidity;BME280_pressure;Samples;Min_cycle;Max_cycle;Signal;HPM_P1;HPM_P2
2021/01/29 00:02:22;;;;;;;6.50;1.53;;;;;;;8.65;100.00;95071.78;5061743;28;20869;-82
2021/01/29 00:04:48;;;;;;;2.73;1.63;;;;;;;8.71;100.00;95058.81;5061042;28;20917;-82
2021/01/29 00:07:14;;;;;;;1.77;1.30;;;;;;;8.75;100.00;95054.44;5061083;28;20469;-83
2021/01/29 00:09:41;;;;;;;3.20;1.30;;;;;;;8.70;100.00;95052.72;5061389;28;20450;-83
2021/01/29 00:12:08;;;;;;;1.50;0.90;;;;;;;8.60;100.00;95044.63;5060674;28;20542;-82
2021/01/29 00:14:35;;;;;;;2.47;1.40;;;;;;;8.62;100.00;95052.13;5058197;28;20469;-85
2021/01/29 00:17:02;;;;;;;1.63;0.90;;;;;;;8.66;100.00;95047.03;5057848;28;20902;-85
2021/01/29 00:19:28;;;;;;;5.07;1.40;;;;;;;8.69;100.00;95045.22;5057194;28;20476;-85
2021/01/29 00:21:54;;;;;;;1.50;1.13;;;;;;;8.63;100.00;95034.00;5057012;28;20941;-84
2021/01/29 00:24:21;;;;;;;1.70;0.83;;;;;;;8.58;100.00;95016.88;5057528;28;20437;-85
2021/01/29 00:26:47;;;;;;;2.43;0.77;;;;;;;8.62;100.00;95019.84;5058198;28;20785;-85
2021/01/29 00:29:14;;;;;;;1.73;0.60;;;;;;;8.63;100.00;95018.59;5057880;28;20417;-85
2021/01/29 00:31:41;;;;;;;1.63;0.90;;;;;;;8.67;100.00;95010.13;5057127;28;20885;-85
2021/01/29 00:34:07;;;;;;;1.80;0.90;;;;;;;8.68;100.00;95014.25;5057510;28;20430;-85
2021/01/29 00:36:34;;;;;;;1.70;0.70;;;;;;;8.54;100.00;94998.47;5057198;28;20482;-85
2021/01/29 00:39:00;;;;;;;1.93;1.07;;;;;;;8.48;100.00;94989.94;5062457;28;20450;-83
2021/01/29 00:41:27;;;;;;;2.40;1.13;;;;;;;8.51;100.00;94993.50;5058357;28;20470;-83
2021/01/29 00:43:53;;;;;;;1.00;0.80;;;;;;;8.45;100.00;94993.75;5058675;28;20424;-83
2021/01/29 00:46:20;;;;;;;2.07;0.90;;;;;;;8.38;100.00;94991.88;5058108;28;20438;-85
2021/01/29 00:48:48;;;;;;;1.27;0.70;;;;;;;8.46;100.00;94989.78;5056712;28;20821;-85
2021/01/29 00:51:14;;;;;;;4.93;1.10;;;;;;;8.32;100.00;94998.78;5056533;28;20417;-85
2021/01/29 00:53:41;;;;;;;0.93;0.70;;;;;;;8.34;100.00;94998.91;5059067;28;20905;-82
2021/01/29 00:56:07;;;;;;;1.07;0.97;;;;;;;8.38;100.00;94988.47;5060780;28;20478;-82
2021/01/29 00:58:34;;;;;;;1.67;0.80;;;;;;;8.45;100.00;94979.59;5060486;28;20427;-83
2021/01/29 01:01:01;;;;;;;1.33;0.90;;;;;;;8.51;100.00;94977.38;5060594;28;20513;-83
2021/01/29 01:03:27;;;;;;;2.60;0.80;;;;;;;8.42;100.00;94976.06;5060965;28;20474;-83
2021/01/29 01:05:55;;;;;;;1.90;0.97;;;;;;;8.52;100.00;94970.72;5060892;28;20445;-83
2021/01/29 01:08:22;;;;;;;1.47;1.20;;;;;;;8.46;100.00;94962.19;5060255;28;20510;-82
2021/01/29 01:10:48;;;;;;;0.80;0.60;;;;;;;8.60;100.00;94949.81;5057381;28;20441;-85
2021/01/29 01:13:15;;;;;;;3.43;0.90;;;;;;;8.54;100.00;94949.38;5056567;28;20590;-84
2021/01/29 01:15:41;;;;;;;2.20;0.77;;;;;;;8.55;100.00;94943.41;5056960;28;20913;-85
2021/01/29 01:18:08;;;;;;;1.20;0.80;;;;;;;8.53;100.00;94934.50;5056790;28;20461;-84
2021/01/29 01:20:35;;;;;;;1.30;0.70;;;;;;;8.56;100.00;94933.38;5056436;28;20442;-84
2021/01/29 01:23:03;;;;;;;2.57;1.03;;;;;;;8.57;100.00;94934.81;5055779;28;20578;-83
2021/01/29 01:25:29;;;;;;;1.07;0.70;;;;;;;8.63;100.00;94923.78;5056020;28;20453;-84
2021/01/29 01:27:56;;;;;;;1.57;0.90;;;;;;;8.63;100.00;94908.34;5056210;28;20439;-83
2021/01/29 01:30:26;;;;;;;6.53;1.43;;;;;;;8.62;100.00;94904.25;5056008;28;20423;-84
2021/01/29 01:32:53;;;;;;;3.23;0.90;;;;;;;8.62;100.00;94904.25;5055416;28;20890;-84
2021/01/29 01:35:20;;;;;;;2.47;1.10;;;;;;;8.64;100.00;94899.03;5056133;28;20474;-85
2021/01/29 01:37:48;;;;;;;0.70;0.60;;;;;;;8.61;100.00;94900.16;5055628;28;20488;-84
2021/01/29 01:40:19;;;;;;;3.33;1.00;;;;;;;8.58;100.00;94885.84;5056112;28;20961;-84
2021/01/29 01:42:46;;;;;;;2.23;1.17;;;;;;;8.61;100.00;94871.28;5056431;28;20484;-84
2021/01/29 01:45:50;;;;;;;1.43;0.80;;;;;;;8.66;100.00;94874.25;5055824;28;20429;-83
2021/01/29 01:48:27;;;;;;;1.10;1.00;;;;;;;8.66;100.00;94863.50;5056241;28;20445;-84
2021/01/29 01:50:54;;;;;;;1.10;0.80;;;;;;;8.65;100.00;94865.47;5055852;28;20426;-83
2021/01/29 01:53:30;;;;;;;2.50;0.90;;;;;;;8.64;100.00;94850.63;5056011;28;20422;-83
2021/01/29 01:56:03;;;;;;;1.23;0.70;;;;;;;8.61;100.00;94849.75;5055560;28;20405;-84
2021/01/29 01:58:31;;;;;;;10.43;1.03;;;;;;;8.63;100.00;94851.91;5056820;28;20427;-83
2021/01/29 02:00:57;;;;;;;1.40;1.10;;;;;;;8.67;100.00;94835.34;5056171;28;20946;-84
2021/01/29 02:03:29;;;;;;;1.10;1.00;;;;;;;8.67;100.00;94846.09;5055814;28;20436;-84
2021/01/29 02:05:57;;;;;;;1.00;0.67;;;;;;;8.69;100.00;94832.78;5056206;28;20438;-85
2021/01/29 02:08:25;;;;;;;0.87;0.67;;;;;;;8.59;100.00;94833.50;5057802;28;20425;-84
2021/01/29 02:10:52;;;;;;;1.50;1.17;;;;;;;8.65;100.00;94821.75;5058410;28;20942;-83
2021/01/29 02:13:19;;;;;;;3.30;0.97;;;;;;;8.69;100.00;94819.34;5059877;28;20488;-83
2021/01/29 02:15:49;;;;;;;3.50;0.77;;;;;;;8.75;100.00;94814.41;5060275;28;20858;-82
2021/01/29 02:18:28;;;;;;;12.30;1.20;;;;;;;8.79;100.00;94806.63;5069974;28;20433;-82
2021/01/29 02:21:27;;;;;;;3.80;0.80;;;;;;;8.78;100.00;94816.69;5081995;28;20407;-83
2021/01/29 02:24:48;;;;;;;0.83;0.80;;;;;;;8.69;100.00;94803.22;5077059;28;20410;-84
2021/01/29 02:27:33;;;;;;;2.27;0.90;;;;;;;8.76;100.00;94797.00;5060123;28;20779;-82
2021/01/29 02:30:29;;;;;;;2.30;0.80;;;;;;;8.68;100.00;94789.06;5060283;28;20403;-83
2021/01/29 02:33:43;;;;;;;0.60;0.50;;;;;;;8.72;100.00;94794.03;5060158;28;20989;-83
2021/01/29 02:36:41;;;;;;;2.37;0.77;;;;;;;8.69;100.00;94790.50;5059971;28;20779;-85
2021/01/29 02:39:26;;;;;;;1.87;0.70;;;;;;;8.73;100.00;94782.72;5059483;28;20430;-85
2021/01/29 02:42:11;;;;;;;0.77;0.57;;;;;;;8.73;100.00;94779.31;5060065;28;20464;-83
2021/01/29 02:45:01;;;;;;;1.77;0.93;;;;;;;8.69;100.00;94768.97;5060382;28;20441;-82
2021/01/29 02:47:30;;;;;;;1.17;0.70;;;;;;;8.74;100.00;94769.97;5060838;28;20405;-83
2021/01/29 02:50:19;;;;;;;2.10;1.00;;;;;;;8.71;100.00;94757.66;5079670;28;20424;-83
2021/01/29 02:52:55;;;;;;;0.87;0.57;;;;;;;8.60;100.00;94754.28;5081759;28;20478;-84
2021/01/29 02:55:29;;;;;;;0.70;0.60;;;;;;;8.56;100.00;94739.81;5081992;28;20405;-84
2021/01/29 02:58:00;;;;;;;1.03;0.50;;;;;;;8.64;100.00;94742.38;5070755;28;20516;-82
2021/01/29 03:00:36;;;;;;;1.33;0.87;;;;;;;8.54;100.00;94734.31;5058917;28;20513;-83
2021/01/29 03:03:08;;;;;;;1.33;0.97;;;;;;;8.58;100.00;94735.28;5058586;28;20436;-85
2021/01/29 03:05:41;;;;;;;0.80;0.60;;;;;;;8.56;100.00;94748.59;5058280;28;20423;-85
2021/01/29 03:08:14;;;;;;;1.93;0.73;;;;;;;8.58;100.00;94737.97;5058112;28;20413;-84
2021/01/29 03:10:48;;;;;;;2.30;0.50;;;;;;;8.66;100.00;94742.50;5058458;28;20389;-85
2021/01/29 03:13:20;;;;;;;0.50;0.40;;;;;;;8.63;100.00;94722.84;5058004;28;20462;-85
2021/01/29 03:15:55;;;;;;;1.80;0.60;;;;;;;8.60;100.00;94718.59;5058848;28;20426;-84
2021/01/29 03:18:27;;;;;;;0.70;0.40;;;;;;;8.69;100.00;94712.53;5058417;28;20469;-84
2021/01/29 03:20:58;;;;;;;0.60;0.50;;;;;;;8.66;100.00;94710.25;5058333;28;20977;-83
2021/01/29 03:23:30;;;;;;;1.33;0.50;;;;;;;8.69;100.00;94717.91;5057908;28;20473;-84
2021/01/29 03:26:01;;;;;;;0.67;0.47;;;;;;;8.77;100.00;94712.38;5058475;28;20423;-84
2021/01/29 03:28:32;;;;;;;1.10;0.60;;;;;;;8.67;100.00;94707.00;5056820;28;20415;-83
2021/01/29 03:31:02;;;;;;;2.50;0.63;;;;;;;8.62;100.00;94702.59;5058018;28;20904;-84
2021/01/29 03:33:33;;;;;;;0.60;0.40;;;;;;;8.61;100.00;94696.53;5058259;28;20405;-84
2021/01/29 03:36:03;;;;;;;2.30;0.83;;;;;;;8.61;100.00;94682.41;5057926;28;20435;-84
2021/01/29 03:38:35;;;;;;;3.27;0.57;;;;;;;8.61;100.00;94679.72;5058315;28;20471;-84
2021/01/29 03:41:18;;;;;;;0.87;0.50;;;;;;;8.65;100.00;94679.25;5058219;28;20822;-85
2021/01/29 03:43:59;;;;;;;0.60;0.50;;;;;;;8.65;100.00;94671.91;5057940;28;20446;-85
2021/01/29 03:46:35;;;;;;;1.53;0.70;;;;;;;8.62;100.00;94673.03;5057982;28;20531;-85
2021/01/29 03:49:15;;;;;;;0.70;0.40;;;;;;;8.63;100.00;94671.06;5060732;28;20413;-82
2021/01/29 03:51:52;;;;;;;1.37;0.53;;;;;;;8.61;100.00;94672.31;5061608;28;20437;-82
2021/01/29 03:54:26;;;;;;;0.70;0.50;;;;;;;8.70;100.00;94667.53;5061975;28;20393;-82
2021/01/29 03:57:13;;;;;;;2.70;0.60;;;;;;;8.67;100.00;94661.31;5060551;28;20461;-82
2021/01/29 03:59:55;;;;;;;0.80;0.50;;;;;;;8.72;100.00;94656.91;5063174;28;21021;-81
2021/01/29 04:02:29;;;;;;;0.97;0.40;;;;;;;8.78;100.00;94654.63;5061771;28;20462;-85
2021/01/29 04:05:04;;;;;;;2.87;0.70;;;;;;;8.69;100.00;94639.22;5057165;28;20946;-85
2021/01/29 04:07:38;;;;;;;1.10;0.70;;;;;;;8.75;100.00;94629.56;5057778;28;20463;-84
2021/01/29 04:10:09;;;;;;;2.00;0.60;;;;;;;8.83;100.00;94627.44;5057302;28;20963;-84
2021/01/29 04:12:42;;;;;;;0.50;0.40;;;;;;;8.81;100.00;94626.59;5057695;28;20444;-85
2021/01/29 04:15:15;;;;;;;0.70;0.47;;;;;;;8.84;100.00;94617.38;5057934;28;20771;-84
2021/01/29 04:17:49;;;;;;;4.43;1.33;;;;;;;8.76;100.00;94625.63;5057656;28;20540;-84
2021/01/29 04:20:21;;;;;;;1.43;0.50;;;;;;;8.71;100.00;94615.16;5056824;28;20389;-84
2021/01/29 04:22:53;;;;;;;0.70;0.50;;;;;;;8.77;100.00;94608.19;5057472;28;20577;-84
2021/01/29 04:25:23;;;;;;;0.70;0.70;;;;;;;8.75;100.00;94594.63;5057322;28;20465;-84
2021/01/29 04:27:57;;;;;;;1.03;0.50;;;;;;;8.68;100.00;94592.78;5057336;28;20427;-84
2021/01/29 04:30:27;;;;;;;0.87;0.60;;;;;;;8.73;100.00;94572.28;5057450;28;20390;-84
2021/01/29 04:32:59;;;;;;;0.67;0.43;;;;;;;8.76;100.00;94568.44;5056936;28;20512;-84
2021/01/29 04:35:27;;;;;;;1.40;0.40;;;;;;;8.70;100.00;94562.66;5057244;28;20448;-84
2021/01/29 04:38:05;;;;;;;0.77;0.50;;;;;;;8.64;100.00;94556.88;5057241;28;20468;-84
2021/01/29 04:40:43;;;;;;;1.47;0.60;;;;;;;8.67;100.00;94559.13;5058166;28;20430;-83
2021/01/29 04:43:30;;;;;;;0.87;0.40;;;;;;;8.74;100.00;94549.50;5058699;28;20440;-84
2021/01/29 04:46:25;;;;;;;0.70;0.40;;;;;;;8.66;100.00;94546.97;5058102;28;20416;-84
2021/01/29 04:48:59;;;;;;;1.57;0.50;;;;;;;8.67;100.00;94520.78;5057485;28;20421;-84
2021/01/29 04:52:03;;;;;;;1.17;0.40;;;;;;;8.61;100.00;94521.09;5057515;28;20448;-85
2021/01/29 04:54:40;;;;;;;0.60;0.30;;;;;;;8.54;100.00;94506.56;5057039;28;20445;-85
2021/01/29 04:57:40;;;;;;;1.03;0.60;;;;;;;8.52;100.00;94503.03;5057328;28;20494;-84
2021/01/29 05:00:41;;;;;;;0.70;0.40;;;;;;;8.61;100.00;94492.22;5057477;28;20782;-84
2021/01/29 05:03:35;;;;;;;1.50;0.50;;;;;;;8.54;100.00;94485.03;5056158;28;20478;-84
2021/01/29 05:06:32;;;;;;;0.50;0.30;;;;;;;8.54;100.00;94476.97;5057280;28;20431;-84
2021/01/29 05:09:17;;;;;;;0.80;0.40;;;;;;;8.46;100.00;94471.06;5056866;28;20901;-85
2021/01/29 05:12:14;;;;;;;0.40;0.30;;;;;;;8.52;100.00;94460.03;5056768;28;20517;-84
2021/01/29 05:14:53;;;;;;;0.50;0.33;;;;;;;8.53;100.00;94464.81;5055866;28;21025;-83
2021/01/29 05:17:49;;;;;;;0.77;0.40;;;;;;;8.53;100.00;94469.47;5058314;28;20441;-82
2021/01/29 05:20:36;;;;;;;1.07;0.40;;;;;;;8.51;100.00;94464.69;5058059;28;20922;-84
2021/01/29 05:23:13;;;;;;;1.30;0.43;;;;;;;8.49;100.00;94461.84;5058103;28;20466;-82
2021/01/29 05:25:57;;;;;;;1.73;0.53;;;;;;;8.54;100.00;94465.53;5059598;28;20401;-82
2021/01/29 05:29:05;;;;;;;2.57;0.93;;;;;;;8.53;100.00;94464.81;5059748;28;20411;-83
2021/01/29 05:31:45;;;;;;;0.70;0.43;;;;;;;8.55;100.00;94456.19;5053386;28;20452;-85
2021/01/29 05:34:37;;;;;;;1.03;0.53;;;;;;;8.46;100.00;94443.47;5056926;28;20412;-85
2021/01/29 05:37:32;;;;;;;2.30;0.67;;;;;;;8.44;100.00;94425.25;5059420;28;20518;-85
2021/01/29 05:40:08;;;;;;;0.63;0.50;;;;;;;8.42;100.00;94417.06;5058470;28;20805;-81
2021/01/29 05:42:50;;;;;;;0.90;0.50;;;;;;;8.48;100.00;94416.75;5060926;28;21019;-84
2021/01/29 05:45:28;;;;;;;1.87;0.60;;;;;;;8.40;100.00;94413.53;5059114;28;20464;-85
2021/01/29 05:48:21;;;;;;;1.30;0.40;;;;;;;8.44;100.00;94393.00;5056837;28;20400;-84
2021/01/29 05:51:04;;;;;;;4.33;1.03;;;;;;;8.43;100.00;94402.34;5055417;28;21008;-85
2021/01/29 05:54:09;;;;;;;2.20;0.80;;;;;;;8.38;100.00;94389.91;5056485;28;20414;-85
2021/01/29 05:56:50;;;;;;;1.23;0.30;;;;;;;8.31;100.00;94384.72;5057877;28;20397;-83
2021/01/29 05:59:52;;;;;;;0.83;0.40;;;;;;;8.31;100.00;94374.69;5058508;28;20415;-81
2021/01/29 06:02:41;;;;;;;0.60;0.30;;;;;;;8.33;100.00;94366.06;5047331;28;20503;-81
2021/01/29 06:05:49;;;;;;;0.50;0.33;;;;;;;8.22;100.00;94374.69;5058430;28;20763;-82
2021/01/29 06:08:52;;;;;;;1.27;0.50;;;;;;;8.22;100.00;94406.94;5036330;28;20933;-84
2021/01/29 06:11:47;;;;;;;1.53;0.30;;;;;;;8.15;100.00;94402.41;5038140;28;20511;-85
2021/01/29 06:14:53;;;;;;;0.80;0.50;;;;;;;8.18;100.00;94409.34;5053699;28;20435;-85
2021/01/29 06:17:47;;;;;;;0.50;0.40;;;;;;;8.17;100.00;94419.41;5075015;28;20458;-83
2021/01/29 06:20:56;;;;;;;1.17;0.50;;;;;;;8.18;100.00;94436.91;5078090;28;20453;-83
2021/01/29 06:23:55;;;;;;;0.80;0.37;;;;;;;8.22;100.00;94449.91;5077976;28;20468;-84
2021/01/29 06:26:46;;;;;;;0.60;0.40;;;;;;;8.25;100.00;94465.59;5051279;28;20446;-85
2021/01/29 06:29:23;;;;;;;1.27;0.50;;;;;;;8.28;100.00;94467.16;5056819;28;20885;-84
2021/01/29 06:32:34;;;;;;;2.60;0.63;;;;;;;8.23;100.00;94480.88;5056485;28;20545;-81
2021/01/29 06:35:14;;;;;;;0.90;0.80;;;;;;;8.26;100.00;94469.00;5058836;28;20897;-82
2021/01/29 06:37:56;;;;;;;0.60;0.40;;;;;;;8.24;100.00;94477.59;5058101;28;20462;-84
2021/01/29 06:40:28;;;;;;;1.33;1.00;;;;;;;8.29;100.00;94462.50;5059966;28;20437;-84
2021/01/29 06:43:12;;;;;;;0.87;0.60;;;;;;;8.30;100.00;94469.28;5060004;28;20851;-83
2021/01/29 06:46:04;;;;;;;0.90;0.50;;;;;;;8.32;100.00;94451.31;5060896;28;20479;-83
2021/01/29 06:48:50;;;;;;;1.07;0.47;;;;;;;8.37;100.00;94444.94;5058558;28;20462;-83
2021/01/29 06:52:04;;;;;;;1.00;0.63;;;;;;;8.41;100.00;94460.63;5056759;28;20520;-86
2021/01/29 06:55:06;;;;;;;0.50;0.40;;;;;;;8.50;100.00;94465.97;5055460;28;20431;-84
2021/01/29 06:58:04;;;;;;;1.27;0.57;;;;;;;8.48;100.00;94471.22;5051381;28;20908;-84
2021/01/29 07:01:03;;;;;;;0.80;0.40;;;;;;;8.50;100.00;94468.66;5056878;28;20500;-86
2021/01/29 07:03:45;;;;;;;2.50;0.43;;;;;;;8.53;100.00;94475.56;5058993;28;20409;-87
2021/01/29 07:06:33;;;;;;;1.43;0.70;;;;;;;8.53;100.00;94472.88;5060784;28;20405;-86
2021/01/29 07:09:10;;;;;;;0.50;0.30;;;;;;;8.57;100.00;94483.91;5061286;28;20398;-84
2021/01/29 07:12:35;;;;;;;0.50;0.30;;;;;;;8.54;100.00;94490.41;5060645;28;20436;-85
2021/01/29 07:15:23;;;;;;;1.17;0.50;;;;;;;8.47;100.00;94504.03;5046520;28;20929;-86
2021/01/29 07:18:17;;;;;;;0.50;0.30;;;;;;;8.51;100.00;94507.69;5061253;28;20470;-83
2021/01/29 07:21:04;;;;;;;2.00;0.40;;;;;;;8.48;100.00;94511.53;5061435;28;20465;-84
2021/01/29 07:24:06;;;;;;;2.00;0.40;;;;;;;8.50;100.00;94516.31;5064119;28;20417;-83
2021/01/29 07:26:51;;;;;;;3.40;0.60;;;;;;;8.54;100.00;94522.69;5062531;28;20457;-84
2021/01/29 07:29:52;;;;;;;0.70;0.43;;;;;;;8.63;99.74;94539.34;5060884;28;20426;-84
2021/01/29 07:32:31;;;;;;;2.60;0.47;;;;;;;8.68;98.06;94528.28;5056526;28;20467;-84
2021/01/29 07:35:05;;;;;;;0.70;0.50;;;;;;;8.71;98.45;94539.88;5060615;28;20912;-82
2021/01/29 07:37:47;;;;;;;0.90;0.47;;;;;;;8.75;98.18;94538.16;5061032;28;20445;-84
2021/01/29 07:40:41;;;;;;;1.53;1.17;;;;;;;8.81;98.30;94533.19;5061873;28;20445;-84
2021/01/29 07:43:24;;;;;;;1.33;0.77;;;;;;;8.79;97.93;94543.81;5063246;28;20445;-85
2021/01/29 07:46:08;;;;;;;0.73;0.60;;;;;;;8.84;96.67;94544.75;5061471;28;20426;-85
2021/01/29 07:48:59;;;;;;;3.23;0.63;;;;;;;8.81;96.34;94529.78;5061733;28;20401;-82
2021/01/29 07:51:36;;;;;;;1.17;0.60;;;;;;;8.89;95.88;94531.03;5062295;28;20437;-84
2021/01/29 07:54:41;;;;;;;0.50;0.37;;;;;;;8.95;95.68;94531.44;5063741;28;20507;-86
2021/01/29 07:57:19;;;;;;;1.03;0.57;;;;;;;8.97;96.17;94533.53;5060676;28;20569;-84
2021/01/29 08:00:09;;;;;;;0.70;0.50;;;;;;;8.99;96.63;94534.38;5057535;28;20426;-85
2021/01/29 08:03:21;;;;;;;1.00;0.50;;;;;;;9.07;95.64;94539.56;5058342;28;20837;-83
2021/01/29 08:05:59;;;;;;;1.43;0.80;;;;;;;9.07;95.10;94531.50;5048417;28;20442;-83
2021/01/29 08:08:30;;;;;;;2.03;0.60;;;;;;;9.12;94.82;94533.88;5058194;28;20401;-84
2021/01/29 08:10:59;;;;;;;1.20;0.40;;;;;;;9.10;94.23;94533.75;5058114;28;20428;-85
2021/01/29 08:13:41;;;;;;;1.77;0.73;;;;;;;9.12;94.75;94535.84;5058619;28;20449;-85
2021/01/29 08:16:30;;;;;;;0.90;0.60;;;;;;;9.28;93.74;94541.56;5058297;28;20393;-85
2021/01/29 08:19:04;;;;;;;1.63;0.60;;;;;;;9.30;93.48;94552.50;5058570;28;20433;-85
2021/01/29 08:22:12;;;;;;;1.77;0.43;;;;;;;9.33;93.79;94543.97;5057168;28;20445;-85
2021/01/29 08:24:50;;;;;;;0.80;0.40;;;;;;;9.31;94.72;94551.91;5055791;28;20462;-85
2021/01/29 08:27:58;;;;;;;2.23;0.60;;;;;;;9.34;95.01;94544.66;5057273;28;20881;-85
2021/01/29 08:30:50;;;;;;;0.57;0.40;;;;;;;9.39;95.28;94557.09;5057517;28;20386;-86
2021/01/29 08:33:52;;;;;;;2.63;0.60;;;;;;;9.35;93.97;94546.78;5076537;28;20466;-84
2021/01/29 08:36:38;;;;;;;3.90;0.70;;;;;;;9.47;93.82;94522.63;5067160;28;20505;-85
2021/01/29 08:39:13;;;;;;;0.50;0.40;;;;;;;9.43;94.28;94525.75;5064454;28;20426;-86
2021/01/29 08:41:54;;;;;;;0.73;0.50;;;;;;;9.50;94.04;94535.63;5057502;28;20451;-87
2021/01/29 08:44:30;;;;;;;1.67;0.60;;;;;;;9.54;93.17;94541.28;5057019;28;20427;-84
2021/01/29 08:47:14;;;;;;;0.80;0.67;;;;;;;9.58;92.92;94538.84;5058713;28;20911;-85
2021/01/29 08:49:56;;;;;;;1.03;0.50;;;;;;;9.55;93.12;94545.38;5061372;28;20393;-86
2021/01/29 08:52:43;;;;;;;1.30;0.50;;;;;;;9.56;92.60;94546.78;5076254;28;20470;-86
2021/01/29 08:55:24;;;;;;;0.80;0.57;;;;;;;9.44;90.94;94548.72;5059934;28;20405;-84
2021/01/29 08:57:58;;;;;;;0.80;0.50;;;;;;;9.45;90.47;94562.88;5059132;28;20941;-85
2021/01/29 09:00:27;;;;;;;2.43;0.67;;;;;;;9.41;89.44;94571.41;5059336;28;20780;-87
2021/01/29 09:03:03;;;;;;;0.77;0.40;;;;;;;9.42;89.74;94561.34;5058248;28;20440;-85
2021/01/29 09:05:32;;;;;;;1.60;0.60;;;;;;;9.48;88.95;94581.28;5058343;28;20410;-85
2021/01/29 09:08:00;;;;;;;0.63;0.43;;;;;;;9.45;88.14;94584.41;5058716;28;20521;-86
2021/01/29 09:10:44;;;;;;;1.53;0.60;;;;;;;9.53;88.24;94590.31;5058313;28;20409;-84
2021/01/29 09:13:16;;;;;;;0.83;0.50;;;;;;;9.53;88.85;94601.06;5058518;28;20473;-85
2021/01/29 09:15:50;;;;;;;4.67;0.60;;;;;;;9.67;87.95;94593.91;5071957;28;20418;-86
2021/01/29 09:18:24;;;;;;;0.60;0.60;;;;;;;9.68;87.68;94593.31;5078148;28;20452;-85
2021/01/29 09:21:03;;;;;;;0.60;0.40;;;;;;;9.60;88.01;94603.59;5078569;28;20415;-84
2021/01/29 09:23:36;;;;;;;1.57;0.50;;;;;;;9.58;88.13;94611.53;5049478;28;20467;-85
2021/01/29 09:26:11;;;;;;;0.50;0.50;;;;;;;9.49;88.11;94619.69;5037137;28;20420;-85
2021/01/29 09:28:44;;;;;;;1.50;0.57;;;;;;;9.51;88.48;94620.50;5036907;28;20462;-85
2021/01/29 09:31:14;;;;;;;1.77;0.50;;;;;;;9.53;88.28;94619.91;5039018;28;20418;-86
2021/01/29 09:33:47;;;;;;;0.90;0.50;;;;;;;9.63;88.33;94621.28;5038885;28;20932;-85
2021/01/29 09:36:17;;;;;;;1.93;0.50;;;;;;;9.79;88.01;94620.91;5039591;28;20429;-85
2021/01/29 09:38:49;;;;;;;1.93;0.70;;;;;;;9.93;87.56;94638.66;5039019;28;20486;-84
2021/01/29 09:41:20;;;;;;;1.40;0.70;;;;;;;10.06;84.76;94651.63;5038405;28;20618;-84
2021/01/29 09:44:02;;;;;;;3.90;0.77;;;;;;;10.00;84.36;94661.31;5037987;28;20387;-86
2021/01/29 09:46:32;;;;;;;2.40;0.70;;;;;;;10.14;82.66;94659.56;5037578;28;20451;-83
2021/01/29 09:49:02;;;;;;;2.77;0.70;;;;;;;10.20;81.53;94652.56;5037348;28;20402;-82
2021/01/29 09:51:53;;;;;;;1.90;1.07;;;;;;;10.31;80.28;94645.78;5039035;28;20442;-83
2021/01/29 09:54:24;;;;;;;3.70;1.07;;;;;;;10.35;79.90;94659.53;5038048;28;20768;-84
2021/01/29 09:56:56;;;;;;;2.10;0.90;;;;;;;10.35;78.92;94670.31;5038157;28;20470;-83
2021/01/29 09:59:34;;;;;;;2.53;1.60;;;;;;;10.32;77.49;94665.38;5038869;28;20489;-85
2021/01/29 10:02:10;;;;;;;3.33;0.73;;;;;;;10.36;78.66;94662.94;5038141;28;20517;-84
2021/01/29 10:05:01;;;;;;;1.37;0.83;;;;;;;10.47;76.69;94662.25;5038444;28;20459;-85
2021/01/29 10:07:29;;;;;;;2.30;0.90;;;;;;;10.40;75.94;94671.97;5038485;28;20501;-82
2021/01/29 10:10:04;;;;;;;5.50;1.50;;;;;;;10.53;76.95;94651.84;5038023;28;20825;-82
2021/01/29 10:12:33;;;;;;;2.07;0.93;;;;;;;10.59;76.01;94663.00;5037500;28;20554;-84
2021/01/29 10:15:06;;;;;;;7.13;1.00;;;;;;;10.50;75.80;94675.28;5038587;28;20491;-85
2021/01/29 10:17:37;;;;;;;5.40;1.13;;;;;;;10.61;76.49;94677.34;5038129;28;20742;-84
2021/01/29 10:20:07;;;;;;;6.50;1.03;;;;;;;10.73;76.64;94661.19;5038316;28;20427;-82
2021/01/29 10:22:58;;;;;;;5.43;1.67;;;;;;;10.59;75.32;94674.50;5038300;28;20817;-88
2021/01/29 10:25:54;;;;;;;5.57;1.00;;;;;;;10.52;76.63;94680.84;5038912;28;20424;-88
2021/01/29 10:28:28;;;;;;;1.67;0.90;;;;;;;10.41;77.99;94664.59;5037106;28;20459;-85
2021/01/29 10:31:02;;;;;;;2.50;0.90;;;;;;;10.28;76.75;94668.50;5038924;28;20494;-87
2021/01/29 10:33:32;;;;;;;3.70;1.50;;;;;;;10.14;76.22;94670.34;5038197;28;20477;-84
2021/01/29 10:36:02;;;;;;;7.60;1.77;;;;;;;10.27;75.89;94658.31;5038302;28;20527;-84
2021/01/29 10:38:34;;;;;;;3.00;1.53;;;;;;;10.15;75.39;94660.94;5040224;28;20521;-84
2021/01/29 10:41:12;;;;;;;4.57;1.40;;;;;;;10.17;74.80;94663.78;5043379;28;20427;-84
2021/01/29 10:43:46;;;;;;;2.57;0.90;;;;;;;10.14;74.51;94664.94;5042652;28;20509;-84
2021/01/29 10:46:27;;;;;;;3.27;0.60;;;;;;;10.19;75.39;94669.28;5044021;28;20390;-85
2021/01/29 10:49:03;;;;;;;4.27;1.20;;;;;;;10.24;74.92;94654.81;5041277;28;20449;-85
2021/01/29 10:51:43;;;;;;;2.93;0.77;;;;;;;10.25;76.38;94669.69;5043418;28;20575;-84
2021/01/29 10:54:11;;;;;;;4.10;0.87;;;;;;;10.34;75.69;94663.50;5050187;28;20383;-89
2021/01/29 10:56:45;;;;;;;2.83;0.90;;;;;;;10.47;76.65;94671.06;5052554;28;20549;-87
2021/01/29 10:59:18;;;;;;;7.67;1.77;;;;;;;10.54;74.45;94672.16;5046313;28;20405;-86
2021/01/29 11:01:55;;;;;;;10.50;1.20;;;;;;;10.51;73.97;94670.63;5043440;28;20504;-89
2021/01/29 11:04:26;;;;;;;2.27;1.13;;;;;;;10.60;73.13;94686.00;5047532;28;20410;-86
2021/01/29 11:06:56;;;;;;;6.50;1.63;;;;;;;10.62;72.22;94680.72;5051212;28;20410;-89
2021/01/29 11:09:29;;;;;;;11.17;1.57;;;;;;;10.64;71.08;94673.47;5049794;28;20418;-87
2021/01/29 11:12:19;;;;;;;6.30;1.30;;;;;;;10.55;72.57;94676.25;5046881;28;21034;-86
2021/01/29 11:14:53;;;;;;;3.20;1.40;;;;;;;10.62;73.37;94678.75;5045562;28;20441;-84
2021/01/29 11:17:27;;;;;;;3.03;1.23;;;;;;;10.77;73.36;94683.72;5044216;28;20519;-85
2021/01/29 11:19:55;;;;;;;5.30;1.53;;;;;;;10.87;73.10;94674.84;5049696;28;20418;-85
2021/01/29 11:22:51;;;;;;;6.10;1.40;;;;;;;10.92;72.64;94679.19;5046380;28;20469;-84
2021/01/29 11:25:59;;;;;;;5.80;1.40;;;;;;;10.66;72.53;94692.47;5046733;28;20447;-85
2021/01/29 11:28:44;;;;;;;5.53;1.63;;;;;;;10.58;74.37;94680.50;5050414;28;20441;-84
2021/01/29 11:31:17;;;;;;;5.63;1.63;;;;;;;10.53;74.20;94703.78;5052275;28;20466;-85
2021/01/29 11:33:49;;;;;;;3.23;1.33;;;;;;;10.50;74.68;94696.88;5054283;28;20442;-89
2021/01/29 11:36:28;;;;;;;4.63;1.37;;;;;;;10.40;74.29;94698.25;5054376;28;20477;-86
2021/01/29 11:39:07;;;;;;;4.13;1.50;;;;;;;10.32;75.01;94703.81;5053382;28;20445;-85
2021/01/29 11:41:44;;;;;;;4.60;1.30;;;;;;;10.23;75.32;94691.13;5050235;28;20461;-87
2021/01/29 11:44:20;;;;;;;9.10;1.30;;;;;;;10.23;75.60;94693.09;5053483;28;20445;-87
2021/01/29 11:46:59;;;;;;;8.70;1.40;;;;;;;10.10;76.41;94705.06;5055810;28;20514;-84
2021/01/29 11:49:32;;;;;;;6.27;1.20;;;;;;;10.15;75.44;94695.97;5054232;28;20458;-85
2021/01/29 11:52:18;;;;;;;3.27;1.40;;;;;;;10.21;76.42;94704.47;5059885;28;20431;-86
2021/01/29 11:54:51;;;;;;;7.87;4.40;;;;;;;10.20;75.55;94695.69;5054892;28;20518;-84
2021/01/29 11:57:23;;;;;;;1.83;1.37;;;;;;;10.38;75.63;94696.13;5053285;28;20482;-86
2021/01/29 11:59:55;;;;;;;7.13;1.47;;;;;;;10.36;74.49;94701.38;5052760;28;20434;-85
2021/01/29 12:02:33;;;;;;;3.17;0.93;;;;;;;10.47;74.17;94691.94;5053204;28;20502;-86
2021/01/29 12:05:16;;;;;;;3.67;1.00;;;;;;;10.48;73.78;94687.94;5052665;28;20421;-85
2021/01/29 12:07:47;;;;;;;4.93;1.40;;;;;;;10.43;74.33;94692.38;5051998;28;20399;-85
2021/01/29 12:10:22;;;;;;;9.60;2.80;;;;;;;10.48;74.14;94685.25;5052263;28;20493;-86
2021/01/29 12:12:54;;;;;;;7.00;1.57;;;;;;;10.53;74.38;94693.00;5053354;28;20466;-91
2021/01/29 12:15:29;;;;;;;5.23;1.13;;;;;;;10.39;73.73;94686.03;5057725;28;20410;-91
2021/01/29 12:17:59;;;;;;;6.73;1.40;;;;;;;10.49;73.93;94689.38;5058692;28;20449;-90
2021/01/29 12:20:29;;;;;;;10.43;1.60;;;;;;;10.54;73.89;94701.81;5059418;28;20446;-89
2021/01/29 12:23:09;;;;;;;9.50;2.10;;;;;;;10.49;72.21;94690.09;5058261;28;20518;-88
2021/01/29 12:26:12;;;;;;;3.83;1.30;;;;;;;10.57;71.72;94684.47;5052559;28;20455;-86
2021/01/29 12:28:57;;;;;;;6.80;2.20;;;;;;;10.47;70.65;94681.84;5044887;28;20443;-87
2021/01/29 12:31:34;;;;;;;4.20;1.10;;;;;;;10.54;70.88;94685.63;5052530;28;20432;-87